Roca, Nebraska
Current Conditions -  °F | °C
As of 3:02 AM on Sunday 23 Nov 2014 (Local Time) from KLNK Reporting Station
Overcast Overcast  
Wind Chill: 55°   Ceiling: 2800
Heat Index: 55°   Visibility: 10mi
Dew Point: 50°   Wind: 14mph
Humidity: 83%   Direction: 200°SSW
Pressure: 29.5"   Gusts: NA
Location:  40.66°N, 96.66°W
Report Text: KLNK 230902Z AUTO 20012KT 10SM SCT015 BKN028 OVC033 13/10 A2950 RMK AO2 T01280100
Loading
Personal Weather Stations






























Interactive Weather Map New forecast layout! Learn more

10-Day Weather Forecast

Advertisements
Track Severe Weather on mobile